createdAt,value
2018-08-03T00:01:50.848Z,3.23
2018-08-03T00:04:19.007Z,6.00
2018-08-03T00:06:47.183Z,5.13
2018-08-03T00:09:16.283Z,5.87
2018-08-03T00:11:44.443Z,3.50
2018-08-03T00:14:12.599Z,4.50
2018-08-03T00:16:40.795Z,6.17
2018-08-03T00:19:08.987Z,3.43
2018-08-03T00:21:37.160Z,3.47
2018-08-03T00:24:05.328Z,6.40
2018-08-03T00:26:33.243Z,7.87
2018-08-03T00:29:01.452Z,3.57
2018-08-03T00:31:29.676Z,6.40
2018-08-03T00:33:57.851Z,3.80
2018-08-03T00:36:26.004Z,3.90
2018-08-03T00:38:54.176Z,4.40
2018-08-03T00:41:22.504Z,4.53
2018-08-03T00:43:50.787Z,5.23
2018-08-03T00:46:19.232Z,4.40
2018-08-03T00:48:47.540Z,5.83
2018-08-03T00:51:16.632Z,5.70
2018-08-03T00:53:44.852Z,5.97
2018-08-03T00:56:13.020Z,5.20
2018-08-03T00:58:41.183Z,4.17
2018-08-03T01:01:09.356Z,5.67
2018-08-03T01:03:37.276Z,5.70
2018-08-03T01:06:05.777Z,6.43
2018-08-03T01:08:33.960Z,7.47
2018-08-03T01:11:02.144Z,5.70
2018-08-03T01:13:30.306Z,4.40
2018-08-03T01:15:58.704Z,4.47
2018-08-03T01:18:26.896Z,5.67
2018-08-03T01:20:55.453Z,6.10
2018-08-03T01:23:23.652Z,13.90
2018-08-03T01:25:51.837Z,8.77
2018-08-03T01:28:19.981Z,6.90
2018-08-03T01:30:48.175Z,7.73
2018-08-03T01:33:16.872Z,4.00
2018-08-03T01:35:45.049Z,5.33
2018-08-03T01:38:13.276Z,6.83
2018-08-03T01:40:41.445Z,6.77
2018-08-03T01:43:09.616Z,8.67
2018-08-03T01:45:37.852Z,7.60
2018-08-03T01:48:06.080Z,5.90
2018-08-03T01:50:34.248Z,8.90
2018-08-03T01:53:02.431Z,6.63
2018-08-03T01:55:30.605Z,7.90
2018-08-03T01:57:58.792Z,6.23
2018-08-03T02:00:26.949Z,6.72
2018-08-03T02:02:55.117Z,11.83
2018-08-03T02:05:23.082Z,5.37
2018-08-03T02:07:51.285Z,5.73
2018-08-03T02:10:19.501Z,5.40
2018-08-03T02:12:47.654Z,7.23
2018-08-03T02:15:15.878Z,5.17
2018-08-03T02:17:44.034Z,5.30
2018-08-03T02:20:12.214Z,5.00
2018-08-03T02:22:40.386Z,9.13
2018-08-03T02:25:08.562Z,7.23
2018-08-03T02:27:36.734Z,7.67
2018-08-03T02:30:05.379Z,5.83
2018-08-03T02:32:33.642Z,5.40
2018-08-03T02:35:01.830Z,6.53
2018-08-03T02:37:30.014Z,5.50
2018-08-03T02:39:58.210Z,8.87
2018-08-03T02:42:26.414Z,6.28
2018-08-03T02:44:54.598Z,12.70
2018-08-03T02:47:22.794Z,5.87
2018-08-03T02:49:51.030Z,5.60
2018-08-03T02:52:19.230Z,7.10
2018-08-03T02:54:47.477Z,6.77
2018-08-03T02:57:15.635Z,7.90
2018-08-03T02:59:43.825Z,7.67
2018-08-03T03:02:12.035Z,6.93
2018-08-03T03:04:40.178Z,6.93
2018-08-03T03:07:08.359Z,10.23
2018-08-03T03:09:36.518Z,13.03
2018-08-03T03:12:04.706Z,6.73
2018-08-03T03:14:33.439Z,8.53
2018-08-03T03:17:01.619Z,11.53
2018-08-03T03:19:29.818Z,7.85
2018-08-03T03:21:57.966Z,7.80
2018-08-03T03:24:26.118Z,8.43
2018-08-03T03:26:54.315Z,7.53
2018-08-03T03:29:22.502Z,7.57
2018-08-03T03:31:50.707Z,6.97
2018-08-03T03:34:18.871Z,10.10
2018-08-03T03:36:47.026Z,8.87
2018-08-03T03:39:15.250Z,7.73
2018-08-03T03:41:43.451Z,11.33
2018-08-03T03:44:11.646Z,9.40
2018-08-03T03:46:39.798Z,8.40
2018-08-03T03:49:07.951Z,8.27
2018-08-03T03:51:35.937Z,7.90
2018-08-03T03:54:04.194Z,7.93
2018-08-03T03:56:32.436Z,11.23
2018-08-03T03:59:00.739Z,10.23
2018-08-03T04:01:28.913Z,11.40
2018-08-03T04:03:57.123Z,8.30
2018-08-03T04:06:25.405Z,10.87
2018-08-03T04:08:53.582Z,16.97
2018-08-03T04:11:21.762Z,8.23
2018-08-03T04:13:49.943Z,10.27
2018-08-03T04:16:18.308Z,10.40
2018-08-03T04:18:46.498Z,10.67
2018-08-03T04:21:14.683Z,13.97
2018-08-03T04:23:42.907Z,11.27
2018-08-03T04:26:11.067Z,10.47
2018-08-03T04:28:39.339Z,10.60
2018-08-03T04:31:07.512Z,9.03
2018-08-03T04:33:35.711Z,10.70
2018-08-03T04:36:03.966Z,8.60
2018-08-03T04:38:32.159Z,10.17
2018-08-03T04:41:00.431Z,10.00
2018-08-03T04:43:28.617Z,9.70
2018-08-03T04:45:56.794Z,9.87
2018-08-03T04:48:25.075Z,10.53
2018-08-03T04:50:53.251Z,11.97
2018-08-03T04:53:21.431Z,12.77
2018-08-03T04:55:49.627Z,11.60
2018-08-03T04:58:18.578Z,11.23
2018-08-03T05:00:46.803Z,12.40
2018-08-03T05:03:15.038Z,12.00
2018-08-03T05:05:43.292Z,10.90
2018-08-03T05:08:11.559Z,8.47
2018-08-03T05:10:39.729Z,9.00
2018-08-03T05:13:07.659Z,12.20
2018-08-03T05:15:35.970Z,10.53
2018-08-03T05:18:04.239Z,10.17
2018-08-03T05:20:32.426Z,13.85
2018-08-03T05:23:00.835Z,10.10
2018-08-03T05:25:29.003Z,10.77
2018-08-03T05:27:57.172Z,9.33
2018-08-03T05:30:25.407Z,10.30
2018-08-03T05:32:53.520Z,9.87
2018-08-03T05:35:21.777Z,16.40
2018-08-03T05:37:49.943Z,10.50
2018-08-03T05:40:19.088Z,10.20
2018-08-03T05:42:47.407Z,14.50
2018-08-03T05:45:19.085Z,12.70
2018-08-03T05:47:47.296Z,11.00
2018-08-03T05:50:16.532Z,15.63
2018-08-03T05:52:44.740Z,15.70
2018-08-03T05:55:12.936Z,13.43
2018-08-03T05:57:41.140Z,13.87
2018-08-03T06:00:09.342Z,10.00
2018-08-03T06:02:37.596Z,11.00
2018-08-03T06:05:06.528Z,10.23
2018-08-03T06:07:34.773Z,10.27
2018-08-03T06:10:02.756Z,11.73
2018-08-03T06:12:31.240Z,10.03
2018-08-03T06:14:59.405Z,12.23
2018-08-03T06:17:27.619Z,11.33
2018-08-03T06:19:55.568Z,10.77
2018-08-03T06:22:23.772Z,12.00
2018-08-03T06:24:51.981Z,13.43
2018-08-03T06:27:19.938Z,14.20
2018-08-03T06:29:48.184Z,9.67
2018-08-03T06:32:16.428Z,11.07
2018-08-03T06:34:44.706Z,18.47
2018-08-03T06:37:12.973Z,9.17
2018-08-03T06:39:41.201Z,12.60
2018-08-03T06:42:09.408Z,12.37
2018-08-03T06:44:37.709Z,10.03
2018-08-03T06:47:05.921Z,12.73
2018-08-03T06:49:34.192Z,10.43
2018-08-03T06:52:02.457Z,10.13
2018-08-03T06:54:30.630Z,10.80
2018-08-03T06:56:58.794Z,10.20
2018-08-03T06:59:27.010Z,10.10
2018-08-03T07:01:55.126Z,11.93
2018-08-03T07:04:23.322Z,9.53
2018-08-03T07:06:51.501Z,9.87
2018-08-03T07:09:19.689Z,11.60
2018-08-03T07:11:47.873Z,18.27
2018-08-03T07:14:16.142Z,9.40
2018-08-03T07:16:44.335Z,11.90
2018-08-03T07:19:12.582Z,10.13
2018-08-03T07:21:41.573Z,10.07
2018-08-03T07:24:09.827Z,11.03
2018-08-03T07:26:37.995Z,10.77
2018-08-03T07:29:06.163Z,9.63
2018-08-03T07:31:34.381Z,18.33
2018-08-03T07:34:02.518Z,10.77
2018-08-03T07:36:30.678Z,11.50
2018-08-03T07:38:58.906Z,12.63
2018-08-03T07:41:27.118Z,12.18
2018-08-03T07:43:55.317Z,13.00
2018-08-03T07:46:23.709Z,13.30
2018-08-03T07:48:51.894Z,10.75
2018-08-03T07:51:20.122Z,10.80
2018-08-03T07:53:48.474Z,15.45
2018-08-03T07:56:16.687Z,10.43
2018-08-03T07:58:44.911Z,10.58
2018-08-03T08:01:13.095Z,11.05
2018-08-03T08:03:41.266Z,11.35
2018-08-03T08:06:09.465Z,10.10
2018-08-03T08:08:37.706Z,9.83
2018-08-03T08:11:05.900Z,9.50
2018-08-03T08:13:34.082Z,12.07
2018-08-03T08:16:02.358Z,11.05
2018-08-03T08:18:30.551Z,12.68
2018-08-03T08:20:58.531Z,9.00
2018-08-03T08:23:26.586Z,12.13
2018-08-03T08:25:54.559Z,11.75
2018-08-03T08:28:22.508Z,8.28
2018-08-03T08:30:50.695Z,10.60
2018-08-03T08:33:18.859Z,10.65
2018-08-03T08:35:47.034Z,10.38
2018-08-03T08:38:15.264Z,9.13
2018-08-03T08:40:43.475Z,10.40
2018-08-03T08:43:11.716Z,10.43
2018-08-03T08:45:39.939Z,8.90
2018-08-03T08:48:08.243Z,10.93
2018-08-03T08:50:36.447Z,9.17
2018-08-03T08:53:04.680Z,9.38
2018-08-03T08:55:32.903Z,9.43
2018-08-03T08:58:01.072Z,10.45
2018-08-03T09:00:29.311Z,8.80
2018-08-03T09:02:57.472Z,9.43
2018-08-03T09:05:25.740Z,10.98
2018-08-03T09:07:53.998Z,9.48
2018-08-03T09:10:22.176Z,8.98
2018-08-03T09:12:50.502Z,8.98
2018-08-03T09:15:18.670Z,8.73
2018-08-03T09:17:46.857Z,8.93
2018-08-03T09:20:15.077Z,10.58
2018-08-03T09:22:43.280Z,10.93
2018-08-03T09:25:11.533Z,12.55
2018-08-03T09:27:39.739Z,10.23
2018-08-03T09:30:08.993Z,8.50
2018-08-03T09:32:36.965Z,7.60
2018-08-03T09:35:05.490Z,8.28
2018-08-03T09:37:33.957Z,7.95
2018-08-03T09:40:02.166Z,8.08
2018-08-03T09:42:30.661Z,7.70
2018-08-03T09:44:58.881Z,7.97
2018-08-03T09:47:27.333Z,6.80
2018-08-03T09:49:55.685Z,6.22
2018-08-03T09:52:23.932Z,5.65
2018-08-03T09:54:52.205Z,6.85
2018-08-03T09:57:20.854Z,7.12
2018-08-03T09:59:49.061Z,7.03
2018-08-03T10:02:17.286Z,6.30
2018-08-03T10:04:45.554Z,9.10
2018-08-03T10:07:13.824Z,5.97
2018-08-03T10:09:41.972Z,6.45
2018-08-03T10:12:10.222Z,7.62
2018-08-03T10:14:38.408Z,6.45
2018-08-03T10:17:06.614Z,5.35
2018-08-03T10:19:34.985Z,5.97
2018-08-03T10:22:03.194Z,5.90
2018-08-03T10:24:31.393Z,7.17
2018-08-03T10:26:59.565Z,5.95
2018-08-03T10:29:27.821Z,9.68
2018-08-03T10:31:56.086Z,5.22
2018-08-03T10:34:24.306Z,5.45
2018-08-03T10:36:52.493Z,5.85
2018-08-03T10:39:21.136Z,6.40
2018-08-03T10:41:49.373Z,5.45
2018-08-03T10:44:17.585Z,6.92
2018-08-03T10:46:45.810Z,5.20
2018-08-03T10:49:14.018Z,9.88
2018-08-03T10:51:42.211Z,7.83
2018-08-03T10:54:11.390Z,4.70
2018-08-03T10:56:39.614Z,6.53
2018-08-03T10:59:07.793Z,5.00
2018-08-03T11:01:36.055Z,8.97
2018-08-03T11:04:04.224Z,7.45
2018-08-03T11:06:32.774Z,4.73
2018-08-03T11:09:00.986Z,5.70
2018-08-03T11:11:29.203Z,7.50
2018-08-03T11:13:57.726Z,6.35
2018-08-03T11:16:25.873Z,6.15
2018-08-03T11:18:54.066Z,7.75
2018-08-03T11:21:22.234Z,5.05
2018-08-03T11:23:50.447Z,5.10
2018-08-03T11:26:18.666Z,5.23
2018-08-03T11:28:47.174Z,5.80
2018-08-03T11:31:15.343Z,4.92
2018-08-03T11:33:43.547Z,5.35
2018-08-03T11:36:11.790Z,6.87
2018-08-03T11:38:40.027Z,5.90
2018-08-03T11:41:08.216Z,5.03
2018-08-03T11:43:36.518Z,6.58
2018-08-03T11:46:04.755Z,6.37
2018-08-03T11:48:32.948Z,6.05
2018-08-03T11:51:01.147Z,5.25
2018-08-03T11:53:29.348Z,6.62
2018-08-03T11:55:57.551Z,5.92
2018-08-03T11:58:25.781Z,5.08
2018-08-03T12:00:53.993Z,5.90
2018-08-03T12:03:22.170Z,5.92
2018-08-03T12:05:50.361Z,4.78
2018-08-03T12:08:19.623Z,4.50
2018-08-03T12:10:47.799Z,4.85
2018-08-03T12:13:15.995Z,6.10
2018-08-03T12:15:44.807Z,4.80
2018-08-03T12:18:14.835Z,4.97
2018-08-03T12:20:44.363Z,4.93
2018-08-03T12:23:12.660Z,6.37
2018-08-03T12:25:40.920Z,4.50
2018-08-03T12:28:09.147Z,6.20
2018-08-03T12:30:37.348Z,5.85
2018-08-03T12:33:05.551Z,6.20
2018-08-03T12:35:33.739Z,4.58
2018-08-03T12:38:01.976Z,4.55
2018-08-03T12:40:30.224Z,6.33
2018-08-03T12:42:58.455Z,4.62
2018-08-03T12:45:33.837Z,5.08
2018-08-03T12:47:54.860Z,4.62
2018-08-03T12:50:23.084Z,6.25
2018-08-03T12:52:51.385Z,4.25
2018-08-03T12:55:19.532Z,4.50
2018-08-03T12:57:47.769Z,4.47
2018-08-03T13:00:16.025Z,4.15
2018-08-03T13:02:44.279Z,4.97
2018-08-03T13:05:12.492Z,4.70
2018-08-03T13:07:40.806Z,4.93
2018-08-03T13:10:09.005Z,5.90
2018-08-03T13:12:37.502Z,4.22
2018-08-03T13:15:06.124Z,4.80
2018-08-03T13:17:34.431Z,5.40
2018-08-03T13:20:02.941Z,4.30
2018-08-03T13:22:31.241Z,6.17
2018-08-03T13:24:59.460Z,4.45
2018-08-03T13:27:27.720Z,7.70
2018-08-03T13:29:55.985Z,4.78
2018-08-03T13:32:24.192Z,4.70
2018-08-03T13:34:52.420Z,7.78
2018-08-03T13:37:20.657Z,4.80
2018-08-03T13:39:48.852Z,6.42
2018-08-03T13:42:17.469Z,5.15
2018-08-03T13:44:45.640Z,6.17
2018-08-03T13:47:13.583Z,5.15
2018-08-03T13:49:41.584Z,4.53
2018-08-03T13:52:09.612Z,4.55
2018-08-03T13:54:37.625Z,5.85
2018-08-03T13:57:05.653Z,6.05
2018-08-03T13:59:33.669Z,6.97
2018-08-03T14:02:07.257Z,5.72
2018-08-03T14:04:35.238Z,6.62
2018-08-03T14:07:03.208Z,6.28
2018-08-03T14:09:31.210Z,4.85
2018-08-03T14:11:59.141Z,4.40
2018-08-03T14:14:27.162Z,4.78
2018-08-03T14:19:21.793Z,4.20
2018-08-03T14:21:49.890Z,7.65
2018-08-03T14:24:18.107Z,9.30
2018-08-03T14:26:46.438Z,5.20
2018-08-03T14:29:14.722Z,6.40
2018-08-03T14:31:42.996Z,4.42
2018-08-03T14:34:11.337Z,4.85
2018-08-03T14:36:39.602Z,6.53
2018-08-03T14:39:09.090Z,5.35
2018-08-03T14:41:37.771Z,5.10
2018-08-03T14:44:06.625Z,4.72
2018-08-03T14:46:34.892Z,4.70
2018-08-03T14:49:03.111Z,4.47
2018-08-03T14:51:31.418Z,4.40
2018-08-03T14:53:59.665Z,9.38
2018-08-03T14:56:28.110Z,4.30
2018-08-03T14:58:56.375Z,14.83
2018-08-03T15:01:24.646Z,7.12
2018-08-03T15:03:53.251Z,7.55
2018-08-03T15:06:21.530Z,4.92
2018-08-03T15:08:49.762Z,5.58
2018-08-03T15:11:18.087Z,5.15
2018-08-03T15:13:46.414Z,5.57
2018-08-03T15:16:14.410Z,5.10
2018-08-03T15:18:42.399Z,11.65
2018-08-03T15:21:10.623Z,5.37
2018-08-03T15:23:38.863Z,4.65
2018-08-03T15:26:07.167Z,10.25
2018-08-03T15:28:35.354Z,5.40
2018-08-03T15:31:03.667Z,5.87
2018-08-03T15:33:32.023Z,4.67
2018-08-03T15:36:00.012Z,6.97
2018-08-03T15:38:28.002Z,6.50
2018-08-03T15:40:56.054Z,4.40
2018-08-03T15:43:24.568Z,6.85
2018-08-03T15:45:52.627Z,9.85
2018-08-03T15:48:20.663Z,7.97
2018-08-03T15:50:49.024Z,7.47
2018-08-03T15:53:17.235Z,4.65
2018-08-03T15:55:45.200Z,4.92
2018-08-03T15:58:13.351Z,4.95
2018-08-03T16:00:41.308Z,5.70
2018-08-03T16:03:09.316Z,5.42
2018-08-03T16:05:37.312Z,4.80
2018-08-03T16:08:05.247Z,5.17
2018-08-03T16:13:02.552Z,4.67
2018-08-03T16:15:30.519Z,4.33
2018-08-03T16:17:58.460Z,5.33
2018-08-03T16:20:26.504Z,4.40
2018-08-03T16:22:54.408Z,6.17
2018-08-03T16:25:23.135Z,4.42
2018-08-03T16:27:51.205Z,5.75
2018-08-03T16:30:19.424Z,5.92
2018-08-03T16:32:47.552Z,6.25
2018-08-03T16:35:15.472Z,6.67
2018-08-03T16:37:43.424Z,4.60
2018-08-03T16:40:11.420Z,4.83
2018-08-03T16:42:39.458Z,6.55
2018-08-03T16:45:07.892Z,4.25
2018-08-03T16:47:35.966Z,4.10
2018-08-03T16:50:04.188Z,5.42
2018-08-03T16:52:32.160Z,4.90
2018-08-03T16:55:00.193Z,5.47
2018-08-03T16:57:28.169Z,4.40
2018-08-03T16:59:56.237Z,4.50
2018-08-03T17:02:24.204Z,4.30
2018-08-03T17:04:52.177Z,7.53
2018-08-03T17:07:20.429Z,5.80
2018-08-03T17:09:48.429Z,9.15
2018-08-03T17:12:16.492Z,5.58
2018-08-03T17:14:44.560Z,3.95
2018-08-03T17:17:12.561Z,5.90
2018-08-03T17:19:40.589Z,4.42
2018-08-03T17:22:08.625Z,4.87
2018-08-03T17:24:36.593Z,4.12
2018-08-03T17:27:04.596Z,4.20
2018-08-03T17:29:32.585Z,6.58
2018-08-03T17:32:00.629Z,6.45
2018-08-03T17:34:28.790Z,5.37
2018-08-03T17:36:56.994Z,4.97
2018-08-03T17:39:25.023Z,4.33
2018-08-03T17:41:53.027Z,4.67
2018-08-03T17:44:20.987Z,5.50
2018-08-03T17:46:49.011Z,4.17
2018-08-03T17:49:17.055Z,4.85
2018-08-03T17:51:45.079Z,6.90
2018-08-03T17:54:13.063Z,5.97
2018-08-03T17:56:41.103Z,5.85
2018-08-03T17:59:09.072Z,5.08
2018-08-03T18:01:37.331Z,5.35
2018-08-03T18:04:05.359Z,5.55
2018-08-03T18:06:33.318Z,4.33
2018-08-03T18:09:01.402Z,5.22
2018-08-03T18:11:29.415Z,4.40
2018-08-03T18:13:57.443Z,5.00
2018-08-03T18:16:25.428Z,4.60
2018-08-03T18:18:53.859Z,5.47
2018-08-03T18:21:21.919Z,5.22
2018-08-03T18:23:50.756Z,7.53
2018-08-03T18:26:18.735Z,6.28
2018-08-03T18:28:46.955Z,5.90
2018-08-03T18:31:14.807Z,4.72
2018-08-03T18:33:42.782Z,5.28
2018-08-03T18:36:10.908Z,4.22
2018-08-03T18:38:38.928Z,3.77
2018-08-03T18:41:06.900Z,4.45
2018-08-03T18:43:34.884Z,19.17
2018-08-03T18:46:02.856Z,6.28
2018-08-03T18:48:30.856Z,7.10
2018-08-03T18:50:58.927Z,6.55
2018-08-03T18:53:26.927Z,7.05
2018-08-03T18:55:54.909Z,3.90
2018-08-03T18:58:22.903Z,6.03
2018-08-03T19:00:50.911Z,5.55
2018-08-03T19:03:18.912Z,4.25
2018-08-03T19:05:47.011Z,8.80
2018-08-03T19:08:15.048Z,10.08
2018-08-03T19:10:43.043Z,4.30
2018-08-03T19:13:11.095Z,15.75
2018-08-03T19:15:39.087Z,4.95
2018-08-03T19:18:07.047Z,6.25
2018-08-03T19:20:35.048Z,7.90
2018-08-03T19:23:03.014Z,6.72
2018-08-03T19:25:31.136Z,6.17
2018-08-03T19:27:59.104Z,5.45
2018-08-03T19:30:27.092Z,6.80
2018-08-03T19:32:55.051Z,4.60
2018-08-03T19:35:23.036Z,22.15
2018-08-03T19:37:51.078Z,5.42
2018-08-03T19:40:19.020Z,3.65
2018-08-03T19:42:47.021Z,6.08
2018-08-03T19:45:14.986Z,4.83
2018-08-03T19:47:42.967Z,4.47
2018-08-03T19:50:10.937Z,7.28
2018-08-03T19:52:38.932Z,8.18
2018-08-03T19:55:06.919Z,6.45
2018-08-03T19:57:34.880Z,2.77
2018-08-03T20:00:02.920Z,5.97
2018-08-03T20:02:31.376Z,3.25
2018-08-03T20:04:59.356Z,5.17
2018-08-03T20:07:27.312Z,6.35
2018-08-03T20:09:55.340Z,4.10
2018-08-03T20:12:23.320Z,5.40
2018-08-03T20:14:51.256Z,4.47
2018-08-03T20:17:19.276Z,3.90
2018-08-03T20:19:47.228Z,4.45
2018-08-03T20:22:17.408Z,4.20
2018-08-03T20:24:45.417Z,5.22
2018-08-03T20:27:13.857Z,4.70
2018-08-03T20:29:41.920Z,5.50
2018-08-03T20:32:09.961Z,8.83
2018-08-03T20:34:38.196Z,4.43
2018-08-03T20:37:06.212Z,4.62
2018-08-03T20:39:34.204Z,4.62
2018-08-03T20:42:02.300Z,3.65
2018-08-03T20:44:30.522Z,4.62
2018-08-03T20:46:58.452Z,3.37
2018-08-03T20:49:26.493Z,8.58
2018-08-03T20:51:54.433Z,5.42
2018-08-03T20:54:23.281Z,3.58
2018-08-03T20:56:51.285Z,4.15
2018-08-03T20:59:19.313Z,4.50
2018-08-03T21:01:47.307Z,4.12
2018-08-03T21:04:15.284Z,5.12
2018-08-03T21:06:43.248Z,4.53
2018-08-03T21:09:12.433Z,4.60
2018-08-03T21:11:40.501Z,5.50
2018-08-03T21:14:08.505Z,3.55
2018-08-03T21:16:37.315Z,8.55
2018-08-03T21:19:05.398Z,5.28
2018-08-03T21:21:34.178Z,2.95
2018-08-03T21:24:03.485Z,6.95
2018-08-03T21:26:31.469Z,3.75
2018-08-03T21:28:59.426Z,4.50
2018-08-03T21:31:27.409Z,6.22
2018-08-03T21:33:55.481Z,5.62
2018-08-03T21:36:23.514Z,5.17
2018-08-03T21:38:51.493Z,5.33
2018-08-03T21:41:19.485Z,4.22
2018-08-03T21:43:47.507Z,3.75
2018-08-03T21:46:15.517Z,3.83
2018-08-03T21:48:43.490Z,5.33
2018-08-03T21:51:11.613Z,2.77
2018-08-03T21:53:39.581Z,5.80
2018-08-03T21:56:07.589Z,5.75
2018-08-03T21:58:35.546Z,6.03
2018-08-03T22:01:03.613Z,4.95
2018-08-03T22:03:31.576Z,5.95
2018-08-03T22:05:59.516Z,6.07
2018-08-03T22:08:27.516Z,5.53
2018-08-03T22:10:55.505Z,2.67
2018-08-03T22:13:23.613Z,7.13
2018-08-03T22:15:51.584Z,4.70
2018-08-03T22:18:19.533Z,5.80
2018-08-03T22:20:47.503Z,3.17
2018-08-03T22:23:15.468Z,2.90
2018-08-03T22:25:43.520Z,3.63
2018-08-03T22:28:11.504Z,2.27
2018-08-03T22:30:39.476Z,4.53
2018-08-03T22:33:07.489Z,4.50
2018-08-03T22:35:35.457Z,3.90
2018-08-03T22:38:03.457Z,2.40
2018-08-03T22:40:31.421Z,2.63
2018-08-03T22:42:59.389Z,8.03
2018-08-03T22:45:27.386Z,3.70
2018-08-03T22:47:55.357Z,3.53
2018-08-03T22:50:23.332Z,6.17
2018-08-03T22:52:51.344Z,2.50
2018-08-03T22:55:19.304Z,3.13
2018-08-03T22:57:47.324Z,3.20
2018-08-03T23:00:15.312Z,2.50
2018-08-03T23:02:43.257Z,5.33
2018-08-03T23:05:11.253Z,4.30
2018-08-03T23:07:39.229Z,4.23
2018-08-03T23:10:07.577Z,4.47
2018-08-03T23:12:35.602Z,2.87
2018-08-03T23:15:03.709Z,2.57
2018-08-03T23:17:31.722Z,2.60
2018-08-03T23:19:59.679Z,3.33
2018-08-03T23:22:27.649Z,3.93
2018-08-03T23:24:55.601Z,3.17
2018-08-03T23:27:23.562Z,3.93
2018-08-03T23:29:51.576Z,3.00
2018-08-03T23:32:19.557Z,3.83
2018-08-03T23:34:47.625Z,2.33
2018-08-03T23:37:15.706Z,2.83
2018-08-03T23:39:43.633Z,5.10
2018-08-03T23:42:11.650Z,3.80
2018-08-03T23:44:39.645Z,2.43
2018-08-03T23:47:07.614Z,2.73
2018-08-03T23:49:35.582Z,3.27
2018-08-03T23:52:03.591Z,4.07
2018-08-03T23:54:31.570Z,2.90
2018-08-03T23:56:59.577Z,2.40
2018-08-03T23:59:27.558Z,2.23
